sensor_id;sensor_type;location;lat;lon;timestamp;P1;P2;P0
56688;PMS5003;42565;53.342;-1.534;2022-08-21T00:00:45;5;4;
56688;PMS5003;42565;53.342;-1.534;2022-08-21T00:03:13;6;5;
56688;PMS5003;42565;53.342;-1.534;2022-08-21T00:05:43;5;4;
56688;PMS5003;42565;53.342;-1.534;2022-08-21T00:08:11;3;3;
56688;PMS5003;42565;53.342;-1.534;2022-08-21T00:10:39;5;4;
56688;PMS5003;42565;53.342;-1.534;2022-08-21T00:13:08;3;3;
56688;PMS5003;42565;53.342;-1.534;2022-08-21T00:15:36;5;4;
56688;PMS5003;42565;53.342;-1.534;2022-08-21T00:18:05;5;4;
56688;PMS5003;42565;53.342;-1.534;2022-08-21T00:20:35;6;4;
56688;PMS5003;42565;53.342;-1.534;2022-08-21T00:23:01;6;5;
56688;PMS5003;42565;53.342;-1.534;2022-08-21T00:25:30;4;4;
56688;PMS5003;42565;53.342;-1.534;2022-08-21T00:27:57;4;4;
56688;PMS5003;42565;53.342;-1.534;2022-08-21T00:30:25;4;4;
56688;PMS5003;42565;53.342;-1.534;2022-08-21T00:32:53;5;3;
56688;PMS5003;42565;53.342;-1.534;2022-08-21T00:35:23;6;5;
56688;PMS5003;42565;53.342;-1.534;2022-08-21T00:37:54;5;4;
56688;PMS5003;42565;53.342;-1.534;2022-08-21T00:40:23;4;3;
56688;PMS5003;42565;53.342;-1.534;2022-08-21T00:42:56;3;3;
56688;PMS5003;42565;53.342;-1.534;2022-08-21T00:45:24;5;5;
56688;PMS5003;42565;53.342;-1.534;2022-08-21T00:47:52;4;3;
56688;PMS5003;42565;53.342;-1.534;2022-08-21T00:50:19;4;4;
56688;PMS5003;42565;53.342;-1.534;2022-08-21T00:52:47;4;4;
56688;PMS5003;42565;53.342;-1.534;2022-08-21T00:55:15;4;4;
56688;PMS5003;42565;53.342;-1.534;2022-08-21T00:57:44;6;4;
56688;PMS5003;42565;53.342;-1.534;2022-08-21T01:00:17;4;4;
56688;PMS5003;42565;53.342;-1.534;2022-08-21T01:02:46;4;3;
56688;PMS5003;42565;53.342;-1.534;2022-08-21T01:05:14;4;3;
56688;PMS5003;42565;53.342;-1.534;2022-08-21T01:07:42;6;5;
56688;PMS5003;42565;53.342;-1.534;2022-08-21T01:10:10;5;5;
56688;PMS5003;42565;53.342;-1.534;2022-08-21T01:12:38;4;4;
56688;PMS5003;42565;53.342;-1.534;2022-08-21T01:15:10;4;4;
56688;PMS5003;42565;53.342;-1.534;2022-08-21T01:17:38;4;4;
56688;PMS5003;42565;53.342;-1.534;2022-08-21T01:20:07;7;5;
56688;PMS5003;42565;53.342;-1.534;2022-08-21T01:22:37;4;4;
56688;PMS5003;42565;53.342;-1.534;2022-08-21T01:25:05;7;5;
56688;PMS5003;42565;53.342;-1.534;2022-08-21T01:27:35;4;4;
56688;PMS5003;42565;53.342;-1.534;2022-08-21T01:30:04;4;4;
56688;PMS5003;42565;53.342;-1.534;2022-08-21T01:32:36;5;5;
56688;PMS5003;42565;53.342;-1.534;2022-08-21T01:35:04;6;4;
56688;PMS5003;42565;53.342;-1.534;2022-08-21T01:37:33;2;2;
56688;PMS5003;42565;53.342;-1.534;2022-08-21T01:40:00;6;6;
56688;PMS5003;42565;53.342;-1.534;2022-08-21T01:42:28;6;4;
56688;PMS5003;42565;53.342;-1.534;2022-08-21T01:44:55;4;4;
56688;PMS5003;42565;53.342;-1.534;2022-08-21T01:47:23;6;5;
56688;PMS5003;42565;53.342;-1.534;2022-08-21T01:49:51;5;5;
56688;PMS5003;42565;53.342;-1.534;2022-08-21T01:52:18;5;5;
56688;PMS5003;42565;53.342;-1.534;2022-08-21T01:54:46;5;4;
56688;PMS5003;42565;53.342;-1.534;2022-08-21T01:57:13;4;4;
56688;PMS5003;42565;53.342;-1.534;2022-08-21T01:59:41;4;3;
56688;PMS5003;42565;53.342;-1.534;2022-08-21T02:02:08;5;5;
56688;PMS5003;42565;53.342;-1.534;2022-08-21T02:04:35;5;4;
56688;PMS5003;42565;53.342;-1.534;2022-08-21T02:07:02;4;4;
56688;PMS5003;42565;53.342;-1.534;2022-08-21T02:09:29;5;4;
56688;PMS5003;42565;53.342;-1.534;2022-08-21T02:11:56;6;4;
56688;PMS5003;42565;53.342;-1.534;2022-08-21T02:14:23;5;3;
56688;PMS5003;42565;53.342;-1.534;2022-08-21T02:16:49;4;3;
56688;PMS5003;42565;53.342;-1.534;2022-08-21T02:19:16;8;7;
56688;PMS5003;42565;53.342;-1.534;2022-08-21T02:21:44;5;5;
56688;PMS5003;42565;53.342;-1.534;2022-08-21T02:24:11;8;6;
56688;PMS5003;42565;53.342;-1.534;2022-08-21T02:26:39;5;4;
56688;PMS5003;42565;53.342;-1.534;2022-08-21T02:29:07;4;4;
56688;PMS5003;42565;53.342;-1.534;2022-08-21T02:31:34;6;5;
56688;PMS5003;42565;53.342;-1.534;2022-08-21T02:34:01;7;5;
56688;PMS5003;42565;53.342;-1.534;2022-08-21T02:36:28;7;7;
56688;PMS5003;42565;53.342;-1.534;2022-08-21T02:38:55;5;4;
56688;PMS5003;42565;53.342;-1.534;2022-08-21T02:41:22;6;6;
56688;PMS5003;42565;53.342;-1.534;2022-08-21T02:43:50;5;3;
56688;PMS5003;42565;53.342;-1.534;2022-08-21T02:46:18;4;4;
56688;PMS5003;42565;53.342;-1.534;2022-08-21T02:48:46;4;4;
56688;PMS5003;42565;53.342;-1.534;2022-08-21T02:51:14;5;4;
56688;PMS5003;42565;53.342;-1.534;2022-08-21T02:53:44;6;6;
56688;PMS5003;42565;53.342;-1.534;2022-08-21T02:56:14;5;5;
56688;PMS5003;42565;53.342;-1.534;2022-08-21T02:58:44;5;5;
56688;PMS5003;42565;53.342;-1.534;2022-08-21T03:01:12;4;4;
56688;PMS5003;42565;53.342;-1.534;2022-08-21T03:03:41;5;4;
56688;PMS5003;42565;53.342;-1.534;2022-08-21T03:06:10;5;5;
56688;PMS5003;42565;53.342;-1.534;2022-08-21T03:08:39;6;6;
56688;PMS5003;42565;53.342;-1.534;2022-08-21T03:11:07;7;5;
56688;PMS5003;42565;53.342;-1.534;2022-08-21T03:13:34;7;6;
56688;PMS5003;42565;53.342;-1.534;2022-08-21T03:16:01;5;5;
56688;PMS5003;42565;53.342;-1.534;2022-08-21T03:18:29;7;7;
56688;PMS5003;42565;53.342;-1.534;2022-08-21T03:20:56;6;5;
56688;PMS5003;42565;53.342;-1.534;2022-08-21T03:23:25;5;5;
56688;PMS5003;42565;53.342;-1.534;2022-08-21T03:25:52;6;6;
56688;PMS5003;42565;53.342;-1.534;2022-08-21T03:28:20;6;6;
56688;PMS5003;42565;53.342;-1.534;2022-08-21T03:30:49;6;6;
56688;PMS5003;42565;53.342;-1.534;2022-08-21T03:33:17;4;4;
56688;PMS5003;42565;53.342;-1.534;2022-08-21T03:35:47;5;5;
56688;PMS5003;42565;53.342;-1.534;2022-08-21T03:38:18;5;4;
56688;PMS5003;42565;53.342;-1.534;2022-08-21T03:40:45;5;5;
56688;PMS5003;42565;53.342;-1.534;2022-08-21T03:43:12;4;4;
56688;PMS5003;42565;53.342;-1.534;2022-08-21T03:45:40;5;5;
56688;PMS5003;42565;53.342;-1.534;2022-08-21T03:48:07;4;3;
56688;PMS5003;42565;53.342;-1.534;2022-08-21T03:50:37;7;5;
56688;PMS5003;42565;53.342;-1.534;2022-08-21T03:53:05;5;5;
56688;PMS5003;42565;53.342;-1.534;2022-08-21T03:55:34;5;5;
56688;PMS5003;42565;53.342;-1.534;2022-08-21T03:58:00;7;6;
56688;PMS5003;42565;53.342;-1.534;2022-08-21T04:00:29;5;4;
56688;PMS5003;42565;53.342;-1.534;2022-08-21T04:02:56;6;5;
56688;PMS5003;42565;53.342;-1.534;2022-08-21T04:05:23;8;5;
56688;PMS5003;42565;53.342;-1.534;2022-08-21T04:07:51;5;5;
56688;PMS5003;42565;53.342;-1.534;2022-08-21T04:10:17;7;5;
56688;PMS5003;42565;53.342;-1.534;2022-08-21T04:12:45;5;5;
56688;PMS5003;42565;53.342;-1.534;2022-08-21T04:15:12;6;5;
56688;PMS5003;42565;53.342;-1.534;2022-08-21T04:17:39;6;5;
56688;PMS5003;42565;53.342;-1.534;2022-08-21T04:20:06;6;6;
56688;PMS5003;42565;53.342;-1.534;2022-08-21T04:22:34;5;5;
56688;PMS5003;42565;53.342;-1.534;2022-08-21T04:25:01;7;6;
56688;PMS5003;42565;53.342;-1.534;2022-08-21T04:27:29;7;7;
56688;PMS5003;42565;53.342;-1.534;2022-08-21T04:29:55;5;4;
56688;PMS5003;42565;53.342;-1.534;2022-08-21T04:32:22;6;5;
56688;PMS5003;42565;53.342;-1.534;2022-08-21T04:34:50;7;6;
56688;PMS5003;42565;53.342;-1.534;2022-08-21T04:37:17;7;7;
56688;PMS5003;42565;53.342;-1.534;2022-08-21T04:39:44;7;5;
56688;PMS5003;42565;53.342;-1.534;2022-08-21T04:42:11;5;5;
56688;PMS5003;42565;53.342;-1.534;2022-08-21T04:44:38;6;6;
56688;PMS5003;42565;53.342;-1.534;2022-08-21T04:47:05;5;5;
56688;PMS5003;42565;53.342;-1.534;2022-08-21T04:49:32;6;6;
56688;PMS5003;42565;53.342;-1.534;2022-08-21T04:51:59;4;4;
56688;PMS5003;42565;53.342;-1.534;2022-08-21T04:54:27;7;6;
56688;PMS5003;42565;53.342;-1.534;2022-08-21T04:56:55;5;5;
56688;PMS5003;42565;53.342;-1.534;2022-08-21T04:59:26;5;5;
56688;PMS5003;42565;53.342;-1.534;2022-08-21T05:01:57;6;5;
56688;PMS5003;42565;53.342;-1.534;2022-08-21T05:04:26;7;7;
56688;PMS5003;42565;53.342;-1.534;2022-08-21T05:06:57;9;8;
56688;PMS5003;42565;53.342;-1.534;2022-08-21T05:09:30;9;8;
56688;PMS5003;42565;53.342;-1.534;2022-08-21T05:11:57;8;7;
56688;PMS5003;42565;53.342;-1.534;2022-08-21T05:14:25;6;6;
56688;PMS5003;42565;53.342;-1.534;2022-08-21T05:16:51;10;8;
56688;PMS5003;42565;53.342;-1.534;2022-08-21T05:19:19;7;7;
56688;PMS5003;42565;53.342;-1.534;2022-08-21T05:21:46;10;8;
56688;PMS5003;42565;53.342;-1.534;2022-08-21T05:24:13;7;6;
56688;PMS5003;42565;53.342;-1.534;2022-08-21T05:26:41;8;8;
56688;PMS5003;42565;53.342;-1.534;2022-08-21T05:29:09;8;8;
56688;PMS5003;42565;53.342;-1.534;2022-08-21T05:31:36;8;8;
56688;PMS5003;42565;53.342;-1.534;2022-08-21T05:34:03;7;4;
56688;PMS5003;42565;53.342;-1.534;2022-08-21T05:36:31;7;6;
56688;PMS5003;42565;53.342;-1.534;2022-08-21T05:38:58;6;6;
56688;PMS5003;42565;53.342;-1.534;2022-08-21T05:41:26;7;7;
56688;PMS5003;42565;53.342;-1.534;2022-08-21T05:43:53;6;6;
56688;PMS5003;42565;53.342;-1.534;2022-08-21T05:46:19;8;6;
56688;PMS5003;42565;53.342;-1.534;2022-08-21T05:48:46;8;7;
56688;PMS5003;42565;53.342;-1.534;2022-08-21T05:51:13;7;6;
56688;PMS5003;42565;53.342;-1.534;2022-08-21T05:53:41;6;6;
56688;PMS5003;42565;53.342;-1.534;2022-08-21T05:56:09;5;5;
56688;PMS5003;42565;53.342;-1.534;2022-08-21T05:58:38;5;5;
56688;PMS5003;42565;53.342;-1.534;2022-08-21T06:01:05;6;6;
56688;PMS5003;42565;53.342;-1.534;2022-08-21T06:03:35;7;7;
56688;PMS5003;42565;53.342;-1.534;2022-08-21T06:06:07;8;7;
56688;PMS5003;42565;53.342;-1.534;2022-08-21T06:08:34;4;4;
56688;PMS5003;42565;53.342;-1.534;2022-08-21T06:11:02;6;6;
56688;PMS5003;42565;53.342;-1.534;2022-08-21T06:13:30;10;7;
56688;PMS5003;42565;53.342;-1.534;2022-08-21T06:16:02;8;8;
56688;PMS5003;42565;53.342;-1.534;2022-08-21T06:18:31;7;7;
56688;PMS5003;42565;53.342;-1.534;2022-08-21T06:20:59;8;7;
56688;PMS5003;42565;53.342;-1.534;2022-08-21T06:23:26;6;5;
56688;PMS5003;42565;53.342;-1.534;2022-08-21T06:25:53;8;8;
56688;PMS5003;42565;53.342;-1.534;2022-08-21T06:28:21;8;8;
56688;PMS5003;42565;53.342;-1.534;2022-08-21T06:30:48;5;5;
56688;PMS5003;42565;53.342;-1.534;2022-08-21T06:33:14;8;6;
56688;PMS5003;42565;53.342;-1.534;2022-08-21T06:35:42;13;9;
56688;PMS5003;42565;53.342;-1.534;2022-08-21T06:38:09;8;8;
56688;PMS5003;42565;53.342;-1.534;2022-08-21T06:40:36;8;7;
56688;PMS5003;42565;53.342;-1.534;2022-08-21T06:43:06;10;8;
56688;PMS5003;42565;53.342;-1.534;2022-08-21T06:45:35;8;8;
56688;PMS5003;42565;53.342;-1.534;2022-08-21T06:48:03;8;7;
56688;PMS5003;42565;53.342;-1.534;2022-08-21T06:50:32;7;6;
56688;PMS5003;42565;53.342;-1.534;2022-08-21T06:53:00;9;7;
56688;PMS5003;42565;53.342;-1.534;2022-08-21T06:55:28;7;7;
56688;PMS5003;42565;53.342;-1.534;2022-08-21T06:57:56;8;8;
56688;PMS5003;42565;53.342;-1.534;2022-08-21T07:00:23;10;8;
56688;PMS5003;42565;53.342;-1.534;2022-08-21T07:02:51;9;7;
56688;PMS5003;42565;53.342;-1.534;2022-08-21T07:05:18;6;5;
56688;PMS5003;42565;53.342;-1.534;2022-08-21T07:07:45;9;8;
56688;PMS5003;42565;53.342;-1.534;2022-08-21T07:10:13;8;8;
56688;PMS5003;42565;53.342;-1.534;2022-08-21T07:12:41;8;7;
56688;PMS5003;42565;53.342;-1.534;2022-08-21T07:15:08;7;6;
56688;PMS5003;42565;53.342;-1.534;2022-08-21T07:17:36;8;7;
56688;PMS5003;42565;53.342;-1.534;2022-08-21T07:20:04;9;9;
56688;PMS5003;42565;53.342;-1.534;2022-08-21T07:22:32;8;8;
56688;PMS5003;42565;53.342;-1.534;2022-08-21T07:25:00;7;7;
56688;PMS5003;42565;53.342;-1.534;2022-08-21T07:27:28;9;8;
56688;PMS5003;42565;53.342;-1.534;2022-08-21T07:29:55;8;6;
56688;PMS5003;42565;53.342;-1.534;2022-08-21T07:32:22;8;8;
56688;PMS5003;42565;53.342;-1.534;2022-08-21T07:34:49;9;6;
56688;PMS5003;42565;53.342;-1.534;2022-08-21T07:37:16;7;7;
56688;PMS5003;42565;53.342;-1.534;2022-08-21T07:39:43;6;5;
56688;PMS5003;42565;53.342;-1.534;2022-08-21T07:42:10;3;3;
56688;PMS5003;42565;53.342;-1.534;2022-08-21T07:44:37;8;6;
56688;PMS5003;42565;53.342;-1.534;2022-08-21T07:47:04;5;4;
56688;PMS5003;42565;53.342;-1.534;2022-08-21T07:49:31;7;6;
56688;PMS5003;42565;53.342;-1.534;2022-08-21T07:51:58;9;7;
56688;PMS5003;42565;53.342;-1.534;2022-08-21T07:54:25;7;6;
56688;PMS5003;42565;53.342;-1.534;2022-08-21T07:56:53;6;6;
56688;PMS5003;42565;53.342;-1.534;2022-08-21T07:59:19;8;8;
56688;PMS5003;42565;53.342;-1.534;2022-08-21T08:01:46;6;6;
56688;PMS5003;42565;53.342;-1.534;2022-08-21T08:04:13;7;7;
56688;PMS5003;42565;53.342;-1.534;2022-08-21T08:06:39;6;5;
56688;PMS5003;42565;53.342;-1.534;2022-08-21T08:09:06;7;7;
56688;PMS5003;42565;53.342;-1.534;2022-08-21T08:11:34;11;9;
56688;PMS5003;42565;53.342;-1.534;2022-08-21T08:14:04;9;9;
56688;PMS5003;42565;53.342;-1.534;2022-08-21T08:16:31;9;9;
56688;PMS5003;42565;53.342;-1.534;2022-08-21T08:18:58;8;8;
56688;PMS5003;42565;53.342;-1.534;2022-08-21T08:21:25;7;6;
56688;PMS5003;42565;53.342;-1.534;2022-08-21T08:23:52;8;6;
56688;PMS5003;42565;53.342;-1.534;2022-08-21T08:26:19;5;5;
56688;PMS5003;42565;53.342;-1.534;2022-08-21T08:28:47;6;6;
56688;PMS5003;42565;53.342;-1.534;2022-08-21T08:31:14;4;4;
56688;PMS5003;42565;53.342;-1.534;2022-08-21T08:33:42;3;3;
56688;PMS5003;42565;53.342;-1.534;2022-08-21T08:36:12;4;3;
56688;PMS5003;42565;53.342;-1.534;2022-08-21T08:38:40;5;5;
56688;PMS5003;42565;53.342;-1.534;2022-08-21T08:41:09;3;3;
56688;PMS5003;42565;53.342;-1.534;2022-08-21T08:43:38;6;5;
56688;PMS5003;42565;53.342;-1.534;2022-08-21T08:46:10;3;3;
56688;PMS5003;42565;53.342;-1.534;2022-08-21T08:48:45;3;3;
56688;PMS5003;42565;53.342;-1.534;2022-08-21T08:51:18;4;4;
56688;PMS5003;42565;53.342;-1.534;2022-08-21T08:53:52;5;4;
56688;PMS5003;42565;53.342;-1.534;2022-08-21T08:56:26;4;4;
56688;PMS5003;42565;53.342;-1.534;2022-08-21T08:58:58;5;5;
56688;PMS5003;42565;53.342;-1.534;2022-08-21T09:01:28;4;4;
56688;PMS5003;42565;53.342;-1.534;2022-08-21T09:03:55;4;4;
56688;PMS5003;42565;53.342;-1.534;2022-08-21T09:06:28;4;3;
56688;PMS5003;42565;53.342;-1.534;2022-08-21T09:09:09;4;4;
56688;PMS5003;42565;53.342;-1.534;2022-08-21T09:11:45;4;4;
56688;PMS5003;42565;53.342;-1.534;2022-08-21T09:14:22;4;4;
56688;PMS5003;42565;53.342;-1.534;2022-08-21T09:17:01;3;3;
56688;PMS5003;42565;53.342;-1.534;2022-08-21T09:19:46;2;2;
56688;PMS5003;42565;53.342;-1.534;2022-08-21T09:22:24;6;5;
56688;PMS5003;42565;53.342;-1.534;2022-08-21T09:25:07;3;3;
56688;PMS5003;42565;53.342;-1.534;2022-08-21T09:27:38;5;5;
56688;PMS5003;42565;53.342;-1.534;2022-08-21T09:30:07;7;4;
56688;PMS5003;42565;53.342;-1.534;2022-08-21T09:32:35;3;3;
56688;PMS5003;42565;53.342;-1.534;2022-08-21T09:35:05;5;4;
56688;PMS5003;42565;53.342;-1.534;2022-08-21T09:37:35;4;4;
56688;PMS5003;42565;53.342;-1.534;2022-08-21T09:40:16;3;3;
56688;PMS5003;42565;53.342;-1.534;2022-08-21T09:42:54;6;4;
56688;PMS5003;42565;53.342;-1.534;2022-08-21T09:45:23;3;3;
56688;PMS5003;42565;53.342;-1.534;2022-08-21T09:47:50;4;3;
56688;PMS5003;42565;53.342;-1.534;2022-08-21T09:50:18;3;3;
56688;PMS5003;42565;53.342;-1.534;2022-08-21T09:52:49;4;3;
56688;PMS5003;42565;53.342;-1.534;2022-08-21T09:55:21;5;3;
56688;PMS5003;42565;53.342;-1.534;2022-08-21T09:57:56;3;3;
56688;PMS5003;42565;53.342;-1.534;2022-08-21T10:00:25;3;3;
56688;PMS5003;42565;53.342;-1.534;2022-08-21T10:02:54;4;4;
56688;PMS5003;42565;53.342;-1.534;2022-08-21T10:05:22;3;3;
56688;PMS5003;42565;53.342;-1.534;2022-08-21T10:07:51;4;3;
56688;PMS5003;42565;53.342;-1.534;2022-08-21T10:10:20;3;3;
56688;PMS5003;42565;53.342;-1.534;2022-08-21T10:12:49;4;3;
56688;PMS5003;42565;53.342;-1.534;2022-08-21T10:15:36;2;1;
56688;PMS5003;42565;53.342;-1.534;2022-08-21T10:18:16;3;2;
56688;PMS5003;42565;53.342;-1.534;2022-08-21T10:20:52;2;2;
56688;PMS5003;42565;53.342;-1.534;2022-08-21T10:23:33;3;3;
56688;PMS5003;42565;53.342;-1.534;2022-08-21T10:26:14;4;3;
56688;PMS5003;42565;53.342;-1.534;2022-08-21T10:28:54;3;2;
56688;PMS5003;42565;53.342;-1.534;2022-08-21T10:31:30;5;4;
56688;PMS5003;42565;53.342;-1.534;2022-08-21T10:34:07;5;4;
56688;PMS5003;42565;53.342;-1.534;2022-08-21T10:36:51;5;4;
56688;PMS5003;42565;53.342;-1.534;2022-08-21T10:39:27;4;3;
56688;PMS5003;42565;53.342;-1.534;2022-08-21T10:42:05;4;3;
56688;PMS5003;42565;53.342;-1.534;2022-08-21T10:44:46;3;3;
56688;PMS5003;42565;53.342;-1.534;2022-08-21T10:47:28;3;3;
56688;PMS5003;42565;53.342;-1.534;2022-08-21T10:50:02;3;3;
56688;PMS5003;42565;53.342;-1.534;2022-08-21T10:52:41;4;4;
56688;PMS5003;42565;53.342;-1.534;2022-08-21T10:55:18;3;3;
56688;PMS5003;42565;53.342;-1.534;2022-08-21T10:57:49;5;4;
56688;PMS5003;42565;53.342;-1.534;2022-08-21T11:00:22;3;3;
56688;PMS5003;42565;53.342;-1.534;2022-08-21T11:02:55;6;5;
56688;PMS5003;42565;53.342;-1.534;2022-08-21T11:05:30;6;5;
56688;PMS5003;42565;53.342;-1.534;2022-08-21T11:08:01;5;4;
56688;PMS5003;42565;53.342;-1.534;2022-08-21T11:10:33;5;5;
56688;PMS5003;42565;53.342;-1.534;2022-08-21T11:13:08;6;6;
56688;PMS5003;42565;53.342;-1.534;2022-08-21T11:15:42;9;6;
56688;PMS5003;42565;53.342;-1.534;2022-08-21T11:18:17;5;4;
56688;PMS5003;42565;53.342;-1.534;2022-08-21T11:20:54;4;4;
56688;PMS5003;42565;53.342;-1.534;2022-08-21T11:23:31;5;5;
56688;PMS5003;42565;53.342;-1.534;2022-08-21T11:26:07;3;3;
56688;PMS5003;42565;53.342;-1.534;2022-08-21T11:28:41;4;4;
56688;PMS5003;42565;53.342;-1.534;2022-08-21T11:31:17;6;5;
56688;PMS5003;42565;53.342;-1.534;2022-08-21T11:34:02;6;5;
56688;PMS5003;42565;53.342;-1.534;2022-08-21T11:36:41;6;6;
56688;PMS5003;42565;53.342;-1.534;2022-08-21T11:39:16;6;6;
56688;PMS5003;42565;53.342;-1.534;2022-08-21T11:41:53;6;6;
56688;PMS5003;42565;53.342;-1.534;2022-08-21T11:44:30;5;5;
56688;PMS5003;42565;53.342;-1.534;2022-08-21T11:47:10;6;6;
56688;PMS5003;42565;53.342;-1.534;2022-08-21T11:49:46;5;5;
56688;PMS5003;42565;53.342;-1.534;2022-08-21T11:52:25;7;5;
56688;PMS5003;42565;53.342;-1.534;2022-08-21T11:54:59;6;6;
56688;PMS5003;42565;53.342;-1.534;2022-08-21T11:57:33;7;6;
56688;PMS5003;42565;53.342;-1.534;2022-08-21T12:00:07;5;5;
56688;PMS5003;42565;53.342;-1.534;2022-08-21T12:02:43;3;3;
56688;PMS5003;42565;53.342;-1.534;2022-08-21T12:05:22;7;5;
56688;PMS5003;42565;53.342;-1.534;2022-08-21T12:08:03;5;5;
56688;PMS5003;42565;53.342;-1.534;2022-08-21T12:10:37;5;5;
56688;PMS5003;42565;53.342;-1.534;2022-08-21T12:13:07;5;5;
56688;PMS5003;42565;53.342;-1.534;2022-08-21T12:15:37;5;4;
56688;PMS5003;42565;53.342;-1.534;2022-08-21T12:18:06;5;5;
56688;PMS5003;42565;53.342;-1.534;2022-08-21T12:20:57;5;5;
56688;PMS5003;42565;53.342;-1.534;2022-08-21T12:23:29;4;4;
56688;PMS5003;42565;53.342;-1.534;2022-08-21T12:26:17;6;6;
56688;PMS5003;42565;53.342;-1.534;2022-08-21T12:28:50;7;6;
56688;PMS5003;42565;53.342;-1.534;2022-08-21T12:31:28;5;5;
56688;PMS5003;42565;53.342;-1.534;2022-08-21T12:33:57;3;3;
56688;PMS5003;42565;53.342;-1.534;2022-08-21T12:36:29;6;4;
56688;PMS5003;42565;53.342;-1.534;2022-08-21T12:39:11;5;5;
56688;PMS5003;42565;53.342;-1.534;2022-08-21T12:41:43;3;3;
56688;PMS5003;42565;53.342;-1.534;2022-08-21T12:44:17;5;5;
56688;PMS5003;42565;53.342;-1.534;2022-08-21T12:46:51;4;4;
56688;PMS5003;42565;53.342;-1.534;2022-08-21T12:49:25;6;5;
56688;PMS5003;42565;53.342;-1.534;2022-08-21T12:51:56;3;3;
56688;PMS5003;42565;53.342;-1.534;2022-08-21T12:54:29;4;4;
56688;PMS5003;42565;53.342;-1.534;2022-08-21T12:56:59;3;3;
56688;PMS5003;42565;53.342;-1.534;2022-08-21T12:59:27;5;5;
56688;PMS5003;42565;53.342;-1.534;2022-08-21T13:01:56;4;4;
56688;PMS5003;42565;53.342;-1.534;2022-08-21T13:04:36;4;4;
56688;PMS5003;42565;53.342;-1.534;2022-08-21T13:07:05;5;5;
56688;PMS5003;42565;53.342;-1.534;2022-08-21T13:09:36;3;3;
56688;PMS5003;42565;53.342;-1.534;2022-08-21T13:12:10;5;5;
56688;PMS5003;42565;53.342;-1.534;2022-08-21T13:14:39;4;4;
56688;PMS5003;42565;53.342;-1.534;2022-08-21T13:17:09;4;3;
56688;PMS5003;42565;53.342;-1.534;2022-08-21T13:19:38;4;4;
56688;PMS5003;42565;53.342;-1.534;2022-08-21T13:22:11;3;3;
56688;PMS5003;42565;53.342;-1.534;2022-08-21T13:24:40;4;4;
56688;PMS5003;42565;53.342;-1.534;2022-08-21T13:27:15;5;5;
56688;PMS5003;42565;53.342;-1.534;2022-08-21T13:29:45;5;4;
56688;PMS5003;42565;53.342;-1.534;2022-08-21T13:32:18;4;4;
56688;PMS5003;42565;53.342;-1.534;2022-08-21T13:34:51;5;5;
56688;PMS5003;42565;53.342;-1.534;2022-08-21T13:37:18;3;3;
56688;PMS5003;42565;53.342;-1.534;2022-08-21T13:39:52;4;4;
56688;PMS5003;42565;53.342;-1.534;2022-08-21T13:42:20;5;5;
56688;PMS5003;42565;53.342;-1.534;2022-08-21T13:44:47;5;4;
56688;PMS5003;42565;53.342;-1.534;2022-08-21T13:47:17;5;5;
56688;PMS5003;42565;53.342;-1.534;2022-08-21T13:49:46;2;2;
56688;PMS5003;42565;53.342;-1.534;2022-08-21T13:52:16;4;4;
56688;PMS5003;42565;53.342;-1.534;2022-08-21T13:54:51;3;3;
56688;PMS5003;42565;53.342;-1.534;2022-08-21T13:57:25;5;4;
56688;PMS5003;42565;53.342;-1.534;2022-08-21T14:00:08;4;4;
56688;PMS5003;42565;53.342;-1.534;2022-08-21T14:02:38;7;6;
56688;PMS5003;42565;53.342;-1.534;2022-08-21T14:05:07;5;5;
56688;PMS5003;42565;53.342;-1.534;2022-08-21T14:07:43;4;4;
56688;PMS5003;42565;53.342;-1.534;2022-08-21T14:10:12;7;6;
56688;PMS5003;42565;53.342;-1.534;2022-08-21T14:12:42;4;4;
56688;PMS5003;42565;53.342;-1.534;2022-08-21T14:15:13;5;5;
56688;PMS5003;42565;53.342;-1.534;2022-08-21T14:17:43;5;5;
56688;PMS5003;42565;53.342;-1.534;2022-08-21T14:20:12;7;6;
56688;PMS5003;42565;53.342;-1.534;2022-08-21T14:22:54;5;5;
56688;PMS5003;42565;53.342;-1.534;2022-08-21T14:25:27;8;7;
56688;PMS5003;42565;53.342;-1.534;2022-08-21T14:27:58;5;5;
56688;PMS5003;42565;53.342;-1.534;2022-08-21T14:30:31;5;5;
56688;PMS5003;42565;53.342;-1.534;2022-08-21T14:33:00;5;5;
56688;PMS5003;42565;53.342;-1.534;2022-08-21T14:35:29;5;5;
56688;PMS5003;42565;53.342;-1.534;2022-08-21T14:37:56;6;5;
56688;PMS5003;42565;53.342;-1.534;2022-08-21T14:40:24;6;5;
56688;PMS5003;42565;53.342;-1.534;2022-08-21T14:42:52;4;4;
56688;PMS5003;42565;53.342;-1.534;2022-08-21T14:45:25;4;4;
56688;PMS5003;42565;53.342;-1.534;2022-08-21T14:47:54;6;5;
56688;PMS5003;42565;53.342;-1.534;2022-08-21T14:50:22;5;5;
56688;PMS5003;42565;53.342;-1.534;2022-08-21T14:52:49;6;6;
56688;PMS5003;42565;53.342;-1.534;2022-08-21T14:55:17;4;4;
56688;PMS5003;42565;53.342;-1.534;2022-08-21T14:57:46;5;5;
56688;PMS5003;42565;53.342;-1.534;2022-08-21T15:00:16;6;6;
56688;PMS5003;42565;53.342;-1.534;2022-08-21T15:02:45;5;4;
56688;PMS5003;42565;53.342;-1.534;2022-08-21T15:05:13;7;7;
56688;PMS5003;42565;53.342;-1.534;2022-08-21T15:07:39;8;7;
56688;PMS5003;42565;53.342;-1.534;2022-08-21T15:10:07;6;5;
56688;PMS5003;42565;53.342;-1.534;2022-08-21T15:12:35;5;5;
56688;PMS5003;42565;53.342;-1.534;2022-08-21T15:15:02;6;6;
56688;PMS5003;42565;53.342;-1.534;2022-08-21T15:17:32;5;5;
56688;PMS5003;42565;53.342;-1.534;2022-08-21T15:20:06;5;5;
56688;PMS5003;42565;53.342;-1.534;2022-08-21T15:22:34;5;5;
56688;PMS5003;42565;53.342;-1.534;2022-08-21T15:25:02;6;6;
56688;PMS5003;42565;53.342;-1.534;2022-08-21T15:27:29;6;6;
56688;PMS5003;42565;53.342;-1.534;2022-08-21T15:29:57;6;5;
56688;PMS5003;42565;53.342;-1.534;2022-08-21T15:32:26;6;6;
56688;PMS5003;42565;53.342;-1.534;2022-08-21T15:34:54;6;6;
56688;PMS5003;42565;53.342;-1.534;2022-08-21T15:37:22;7;7;
56688;PMS5003;42565;53.342;-1.534;2022-08-21T15:39:51;6;6;
56688;PMS5003;42565;53.342;-1.534;2022-08-21T15:42:18;8;7;
56688;PMS5003;42565;53.342;-1.534;2022-08-21T15:44:46;8;7;
56688;PMS5003;42565;53.342;-1.534;2022-08-21T15:47:14;7;7;
56688;PMS5003;42565;53.342;-1.534;2022-08-21T15:49:43;7;7;
56688;PMS5003;42565;53.342;-1.534;2022-08-21T15:52:10;7;6;
56688;PMS5003;42565;53.342;-1.534;2022-08-21T15:54:37;6;6;
56688;PMS5003;42565;53.342;-1.534;2022-08-21T15:57:04;5;5;
56688;PMS5003;42565;53.342;-1.534;2022-08-21T15:59:32;6;6;
56688;PMS5003;42565;53.342;-1.534;2022-08-21T16:02:06;5;5;
56688;PMS5003;42565;53.342;-1.534;2022-08-21T16:04:39;5;5;
56688;PMS5003;42565;53.342;-1.534;2022-08-21T16:07:06;7;6;
56688;PMS5003;42565;53.342;-1.534;2022-08-21T16:09:33;7;6;
56688;PMS5003;42565;53.342;-1.534;2022-08-21T16:12:00;6;6;
56688;PMS5003;42565;53.342;-1.534;2022-08-21T16:14:27;4;4;
56688;PMS5003;42565;53.342;-1.534;2022-08-21T16:16:56;6;5;
56688;PMS5003;42565;53.342;-1.534;2022-08-21T16:19:23;7;7;
56688;PMS5003;42565;53.342;-1.534;2022-08-21T16:21:52;7;7;
56688;PMS5003;42565;53.342;-1.534;2022-08-21T16:24:19;7;7;
56688;PMS5003;42565;53.342;-1.534;2022-08-21T16:26:47;11;9;
56688;PMS5003;42565;53.342;-1.534;2022-08-21T16:29:15;6;6;
56688;PMS5003;42565;53.342;-1.534;2022-08-21T16:31:44;6;6;
56688;PMS5003;42565;53.342;-1.534;2022-08-21T16:34:11;12;8;
56688;PMS5003;42565;53.342;-1.534;2022-08-21T16:36:42;7;7;
56688;PMS5003;42565;53.342;-1.534;2022-08-21T16:39:10;7;7;
56688;PMS5003;42565;53.342;-1.534;2022-08-21T16:41:38;8;8;
56688;PMS5003;42565;53.342;-1.534;2022-08-21T16:44:05;7;7;
56688;PMS5003;42565;53.342;-1.534;2022-08-21T16:46:33;7;7;
56688;PMS5003;42565;53.342;-1.534;2022-08-21T16:49:04;7;7;
56688;PMS5003;42565;53.342;-1.534;2022-08-21T16:51:32;8;8;